Aérodrome :
LOGIN :

S'inscrire | Disclaimer

   EN    FR    IT 

 










Légende :    VFR   VFR Marginal   IFR   IFR Intensif   IFR Très Intensif
Visi : 
Plafond : 
>= 8 km
>= 3000ft
5 à 8 km
1000 à 3000 ft
1500m à 5 km
500 à 1000 ft
800 à 1500m
200 à 500 ft
< 800m
< 200 ft
Symboles :   Orages  Brouillard  Fortes neiges  Fortes précipitations  Vent > 20 kt
SIGMETs :   Divers  Orages  Givrage  Turbulence  Onde Orograph.  Cendres Volcan.







- Altitude de l'aérodrome : 160 ft
- Code IATA : LRT
- Voir les cartes d'approche


LFRH - Lorient Lann Bihoue

DERNIER METAR :
  • 181530Z AUTO 25009KT CAVOK 25/16 Q1008 TEMPO TSRA SCT045CB BKN055

METARs EXPIRÉS :
  • 181500Z AUTO 18007KT 140V230 CAVOK 25/15 Q1008 TEMPO TSRA SCT045CB BKN055
  • 181430Z AUTO 15005KT 100V200 CAVOK 25/15 Q1008 TEMPO TSRA SCT045CB BKN055
  • 181400Z AUTO 16007KT 130V200 CAVOK 25/15 Q1009 TEMPO TSRA SCT045CB BKN055
  • 181330Z AUTO 15006KT 100V230 CAVOK 25/16 Q1009 TEMPO TSRA SCT045CB BKN055
  • 181300Z AUTO 13004KT 070V200 CAVOK 25/17 Q1009 TEMPO TSRA SCT045CB BKN055

TAF TAF LFRH
Valide du 18 à 12h jusqu'au 19 à 12h UTC


181100Z 1812/1912 06010KT CAVOK
TEMPO 1812/1822 SHRA SCT055CB
PROB30
TEMPO 1812/1820 VRB10G20KT TSRA SCT045CB BKN055
BECMG 1900/1902 25010KT BKN010
TEMPO 1902/1907 3000 -DZ BKN005 OVC008
BECMG 1910/1912 BKN025
Pas de NOTAMs connus pour ce terrain.



MET'MAP, la Météo Aéronautique d'un coup d'oeil ! - Copyright ORBIFLY Décembre 2007 - Disclaimer

ORBIFLY MET'MAP TEAM :

Programmation & Développement : Alexandra Zaïnal
Conception & Développement : Baudouin d'Aumeries
Co-Programmation & Développement : Marc-Olivier Méhu
Soutien technique & logistique : Manuel Goepfert

Contact : metmap@orbifly.com




SOURCES & CREDITS :

   NOAA